METAR Data
IDs: Format: Raw Decoded Include TAF

Data at: 0322 UTC 24 Jun 2021

METAR for:KDAY (Dayton/Cox Intl, OH, US)
Text:KDAY 240256Z 16009KT 10SM SCT100 BKN140 21/08 A3018 RMK AO2 SLP212 T02060083 53001
Temperature: 20.6°C ( 69°F)
Dewpoint: 8.3°C ( 47°F) [RH = 45%]
Pressure (altimeter):30.18 inches Hg (1022.1 mb) [Sea level pressure: 1021.2 mb]
Winds:from the SSE (160 degrees) at 10 MPH (9 knots; 4.6 m/s)
Visibility:10 or more sm (16+ km)
Ceiling:14000 feet AGL
Clouds: scattered clouds at 10000 feet AGL, broken clouds at 14000 feet AGL